sensor_id;sensor_type;location;lat;lon;timestamp;temperature;humidity
35277;DHT22;21401;50.878;8.050;2022-12-07T00:07:00;3.20;99.90
35277;DHT22;21401;50.878;8.050;2022-12-07T00:20:37;3.20;99.90
35277;DHT22;21401;50.878;8.050;2022-12-07T01:05:53;3.30;99.90
35277;DHT22;21401;50.878;8.050;2022-12-07T01:37:08;3.30;99.90
35277;DHT22;21401;50.878;8.050;2022-12-07T12:02:49;4.60;99.90
35277;DHT22;21401;50.878;8.050;2022-12-07T13:31:33;5.30;99.90
35277;DHT22;21401;50.878;8.050;2022-12-07T14:10:03;4.70;99.90
35277;DHT22;21401;50.878;8.050;2022-12-07T14:34:20;4.30;99.90
35277;DHT22;21401;50.878;8.050;2022-12-07T15:25:05;4.00;99.90
35277;DHT22;21401;50.878;8.050;2022-12-07T15:28:21;4.00;99.90
35277;DHT22;21401;50.878;8.050;2022-12-07T15:31:17;4.10;99.90
35277;DHT22;21401;50.878;8.050;2022-12-07T15:34:47;4.20;99.90
35277;DHT22;21401;50.878;8.050;2022-12-07T15:37:59;4.10;99.90
35277;DHT22;21401;50.878;8.050;2022-12-07T15:40:59;4.10;99.90
35277;DHT22;21401;50.878;8.050;2022-12-07T15:44:19;4.00;99.90
35277;DHT22;21401;50.878;8.050;2022-12-07T15:47:34;4.00;99.90
35277;DHT22;21401;50.878;8.050;2022-12-07T15:51:08;4.00;99.90
35277;DHT22;21401;50.878;8.050;2022-12-07T15:54:35;4.00;99.90
35277;DHT22;21401;50.878;8.050;2022-12-07T15:57:40;3.90;99.90
35277;DHT22;21401;50.878;8.050;2022-12-07T16:01:17;3.90;99.90
35277;DHT22;21401;50.878;8.050;2022-12-07T16:04:22;3.90;99.90
35277;DHT22;21401;50.878;8.050;2022-12-07T16:15:03;3.80;99.90
35277;DHT22;21401;50.878;8.050;2022-12-07T16:18:20;3.70;99.90
35277;DHT22;21401;50.878;8.050;2022-12-07T16:22:04;3.60;99.90
35277;DHT22;21401;50.878;8.050;2022-12-07T16:24:43;3.60;99.90
35277;DHT22;21401;50.878;8.050;2022-12-07T16:31:40;3.60;99.90
35277;DHT22;21401;50.878;8.050;2022-12-07T16:39:14;3.60;99.90
35277;DHT22;21401;50.878;8.050;2022-12-07T16:42:51;3.70;99.90
35277;DHT22;21401;50.878;8.050;2022-12-07T16:46:03;3.70;99.90
35277;DHT22;21401;50.878;8.050;2022-12-07T16:49:34;3.60;99.90
35277;DHT22;21401;50.878;8.050;2022-12-07T16:53:09;3.60;99.90
35277;DHT22;21401;50.878;8.050;2022-12-07T16:56:36;3.60;99.90
35277;DHT22;21401;50.878;8.050;2022-12-07T17:00:30;3.60;99.90
35277;DHT22;21401;50.878;8.050;2022-12-07T17:07:31;3.60;99.90
35277;DHT22;21401;50.878;8.050;2022-12-07T17:18:05;3.60;99.90
35277;DHT22;21401;50.878;8.050;2022-12-07T17:21:46;3.60;99.90
35277;DHT22;21401;50.878;8.050;2022-12-07T17:29:00;3.60;99.90
35277;DHT22;21401;50.878;8.050;2022-12-07T17:32:44;3.50;99.90
35277;DHT22;21401;50.878;8.050;2022-12-07T17:43:18;3.50;99.90
35277;DHT22;21401;50.878;8.050;2022-12-07T17:46:47;3.50;99.90
35277;DHT22;21401;50.878;8.050;2022-12-07T17:50:13;3.50;99.90
35277;DHT22;21401;50.878;8.050;2022-12-07T17:53:43;3.50;99.90
35277;DHT22;21401;50.878;8.050;2022-12-07T17:57:11;3.50;99.90
35277;DHT22;21401;50.878;8.050;2022-12-07T18:00:42;3.50;99.90
35277;DHT22;21401;50.878;8.050;2022-12-07T18:04:07;3.60;99.90
35277;DHT22;21401;50.878;8.050;2022-12-07T18:07:18;3.60;99.90
35277;DHT22;21401;50.878;8.050;2022-12-07T18:10:45;3.70;99.90
35277;DHT22;21401;50.878;8.050;2022-12-07T18:13:57;3.70;99.90
35277;DHT22;21401;50.878;8.050;2022-12-07T18:17:13;3.80;99.90
35277;DHT22;21401;50.878;8.050;2022-12-07T18:20:44;3.80;99.90
35277;DHT22;21401;50.878;8.050;2022-12-07T18:23:53;3.70;99.90
35277;DHT22;21401;50.878;8.050;2022-12-07T18:27:23;3.70;99.90
35277;DHT22;21401;50.878;8.050;2022-12-07T18:30:49;3.70;99.90
35277;DHT22;21401;50.878;8.050;2022-12-07T18:34:09;3.60;99.90
35277;DHT22;21401;50.878;8.050;2022-12-07T18:37:37;3.60;99.90
35277;DHT22;21401;50.878;8.050;2022-12-07T18:41:06;3.60;99.90
35277;DHT22;21401;50.878;8.050;2022-12-07T18:44:36;3.60;99.90
35277;DHT22;21401;50.878;8.050;2022-12-07T18:48:11;3.60;99.90
35277;DHT22;21401;50.878;8.050;2022-12-07T18:51:40;3.60;99.90
35277;DHT22;21401;50.878;8.050;2022-12-07T18:54:57;3.60;99.90
35277;DHT22;21401;50.878;8.050;2022-12-07T18:58:25;3.60;99.90
35277;DHT22;21401;50.878;8.050;2022-12-07T19:01:51;3.60;99.90
35277;DHT22;21401;50.878;8.050;2022-12-07T19:05:03;3.60;99.90
35277;DHT22;21401;50.878;8.050;2022-12-07T19:08:31;3.60;99.90
35277;DHT22;21401;50.878;8.050;2022-12-07T19:12:00;3.60;99.90
35277;DHT22;21401;50.878;8.050;2022-12-07T19:15:08;3.60;99.90
35277;DHT22;21401;50.878;8.050;2022-12-07T19:18:34;3.60;99.90
35277;DHT22;21401;50.878;8.050;2022-12-07T19:22:04;3.60;99.90
35277;DHT22;21401;50.878;8.050;2022-12-07T19:25:31;3.60;99.90
35277;DHT22;21401;50.878;8.050;2022-12-07T19:28:57;3.60;99.90
35277;DHT22;21401;50.878;8.050;2022-12-07T19:32:23;3.60;99.90
35277;DHT22;21401;50.878;8.050;2022-12-07T19:35:50;3.60;99.90
35277;DHT22;21401;50.878;8.050;2022-12-07T19:39:21;3.60;99.90
35277;DHT22;21401;50.878;8.050;2022-12-07T19:42:54;3.60;99.90
35277;DHT22;21401;50.878;8.050;2022-12-07T19:46:24;3.60;99.90
35277;DHT22;21401;50.878;8.050;2022-12-07T19:50:08;3.60;99.90
35277;DHT22;21401;50.878;8.050;2022-12-07T19:53:46;3.60;99.90
35277;DHT22;21401;50.878;8.050;2022-12-07T19:57:15;3.60;99.90
35277;DHT22;21401;50.878;8.050;2022-12-07T20:00:45;3.60;99.90
35277;DHT22;21401;50.878;8.050;2022-12-07T20:04:16;3.50;99.90
35277;DHT22;21401;50.878;8.050;2022-12-07T20:07:32;3.50;99.90
35277;DHT22;21401;50.878;8.050;2022-12-07T20:10:59;3.50;99.90
35277;DHT22;21401;50.878;8.050;2022-12-07T20:14:10;3.50;99.90
35277;DHT22;21401;50.878;8.050;2022-12-07T20:17:24;3.60;99.90
35277;DHT22;21401;50.878;8.050;2022-12-07T20:20:56;3.40;99.90
35277;DHT22;21401;50.878;8.050;2022-12-07T20:23:58;3.30;99.90
35277;DHT22;21401;50.878;8.050;2022-12-07T20:27:30;3.30;99.90
35277;DHT22;21401;50.878;8.050;2022-12-07T20:30:20;3.30;99.90
35277;DHT22;21401;50.878;8.050;2022-12-07T20:33:29;3.20;99.90
35277;DHT22;21401;50.878;8.050;2022-12-07T20:36:55;3.20;99.90
35277;DHT22;21401;50.878;8.050;2022-12-07T20:40:01;3.20;99.90
35277;DHT22;21401;50.878;8.050;2022-12-07T20:43:09;3.20;99.90
35277;DHT22;21401;50.878;8.050;2022-12-07T20:46:07;3.30;99.90
35277;DHT22;21401;50.878;8.050;2022-12-07T20:48:39;3.20;99.90
35277;DHT22;21401;50.878;8.050;2022-12-07T20:51:10;3.20;99.90
35277;DHT22;21401;50.878;8.050;2022-12-07T20:53:40;3.10;99.90
35277;DHT22;21401;50.878;8.050;2022-12-07T20:56:22;3.10;99.90
35277;DHT22;21401;50.878;8.050;2022-12-07T20:58:51;3.10;99.90
35277;DHT22;21401;50.878;8.050;2022-12-07T21:01:20;3.00;99.90
35277;DHT22;21401;50.878;8.050;2022-12-07T21:03:59;2.90;99.90
35277;DHT22;21401;50.878;8.050;2022-12-07T21:06:26;2.80;99.90
35277;DHT22;21401;50.878;8.050;2022-12-07T21:08:55;2.80;99.90
35277;DHT22;21401;50.878;8.050;2022-12-07T21:11:22;2.80;99.90
35277;DHT22;21401;50.878;8.050;2022-12-07T21:13:54;2.80;99.90
35277;DHT22;21401;50.878;8.050;2022-12-07T21:16:26;2.70;99.90
35277;DHT22;21401;50.878;8.050;2022-12-07T21:18:53;2.60;99.90
35277;DHT22;21401;50.878;8.050;2022-12-07T21:21:20;2.60;99.90
35277;DHT22;21401;50.878;8.050;2022-12-07T21:23:47;2.60;99.90
35277;DHT22;21401;50.878;8.050;2022-12-07T21:26:18;2.60;99.90
35277;DHT22;21401;50.878;8.050;2022-12-07T21:28:45;2.50;99.90
35277;DHT22;21401;50.878;8.050;2022-12-07T21:31:15;2.60;99.90
35277;DHT22;21401;50.878;8.050;2022-12-07T21:33:41;2.60;99.90
35277;DHT22;21401;50.878;8.050;2022-12-07T21:36:13;2.60;99.90
35277;DHT22;21401;50.878;8.050;2022-12-07T21:38:42;2.60;99.90
35277;DHT22;21401;50.878;8.050;2022-12-07T21:41:13;2.60;99.90
35277;DHT22;21401;50.878;8.050;2022-12-07T21:43:40;2.70;99.90
35277;DHT22;21401;50.878;8.050;2022-12-07T21:46:09;2.60;99.90
35277;DHT22;21401;50.878;8.050;2022-12-07T21:48:36;2.60;99.90
35277;DHT22;21401;50.878;8.050;2022-12-07T21:51:10;2.60;99.90
35277;DHT22;21401;50.878;8.050;2022-12-07T21:53:37;2.60;99.90
35277;DHT22;21401;50.878;8.050;2022-12-07T21:56:08;2.70;99.90
35277;DHT22;21401;50.878;8.050;2022-12-07T21:58:36;2.70;99.90
35277;DHT22;21401;50.878;8.050;2022-12-07T22:01:03;2.70;99.90
35277;DHT22;21401;50.878;8.050;2022-12-07T22:03:30;2.70;99.90
35277;DHT22;21401;50.878;8.050;2022-12-07T22:06:00;2.70;99.90
35277;DHT22;21401;50.878;8.050;2022-12-07T22:08:26;2.80;99.90
35277;DHT22;21401;50.878;8.050;2022-12-07T22:10:53;2.90;99.90
35277;DHT22;21401;50.878;8.050;2022-12-07T22:13:19;2.80;99.90
35277;DHT22;21401;50.878;8.050;2022-12-07T22:15:46;2.90;99.90
35277;DHT22;21401;50.878;8.050;2022-12-07T22:18:12;2.90;99.90
35277;DHT22;21401;50.878;8.050;2022-12-07T22:20:39;2.80;99.90
35277;DHT22;21401;50.878;8.050;2022-12-07T22:23:06;2.80;99.90
35277;DHT22;21401;50.878;8.050;2022-12-07T22:25:32;2.80;99.90
35277;DHT22;21401;50.878;8.050;2022-12-07T22:27:59;2.80;99.90
35277;DHT22;21401;50.878;8.050;2022-12-07T22:30:25;2.70;99.90
35277;DHT22;21401;50.878;8.050;2022-12-07T22:32:55;2.70;99.90
35277;DHT22;21401;50.878;8.050;2022-12-07T22:35:22;2.80;99.90
35277;DHT22;21401;50.878;8.050;2022-12-07T22:37:48;2.70;99.90
35277;DHT22;21401;50.878;8.050;2022-12-07T22:40:15;2.80;99.90
35277;DHT22;21401;50.878;8.050;2022-12-07T22:42:47;2.80;99.90
35277;DHT22;21401;50.878;8.050;2022-12-07T22:45:13;2.80;99.90
35277;DHT22;21401;50.878;8.050;2022-12-07T22:47:45;2.80;99.90
35277;DHT22;21401;50.878;8.050;2022-12-07T22:50:12;2.80;99.90
35277;DHT22;21401;50.878;8.050;2022-12-07T22:52:38;2.80;99.90
35277;DHT22;21401;50.878;8.050;2022-12-07T22:55:08;2.80;99.90
35277;DHT22;21401;50.878;8.050;2022-12-07T22:57:36;2.80;99.90
35277;DHT22;21401;50.878;8.050;2022-12-07T23:00:04;2.80;99.90
35277;DHT22;21401;50.878;8.050;2022-12-07T23:02:33;2.80;99.90
35277;DHT22;21401;50.878;8.050;2022-12-07T23:05:01;2.90;99.90
35277;DHT22;21401;50.878;8.050;2022-12-07T23:07:29;2.90;99.90
35277;DHT22;21401;50.878;8.050;2022-12-07T23:09:58;2.90;99.90
35277;DHT22;21401;50.878;8.050;2022-12-07T23:12:25;2.90;99.90
35277;DHT22;21401;50.878;8.050;2022-12-07T23:15:09;2.90;99.90
35277;DHT22;21401;50.878;8.050;2022-12-07T23:17:36;2.90;99.90
35277;DHT22;21401;50.878;8.050;2022-12-07T23:20:04;2.90;99.90
35277;DHT22;21401;50.878;8.050;2022-12-07T23:22:30;2.90;99.90
35277;DHT22;21401;50.878;8.050;2022-12-07T23:25:05;3.00;99.90
35277;DHT22;21401;50.878;8.050;2022-12-07T23:27:33;3.00;99.90
35277;DHT22;21401;50.878;8.050;2022-12-07T23:29:59;3.00;99.90
35277;DHT22;21401;50.878;8.050;2022-12-07T23:32:25;3.00;99.90
35277;DHT22;21401;50.878;8.050;2022-12-07T23:34:51;3.00;99.90
35277;DHT22;21401;50.878;8.050;2022-12-07T23:37:17;3.00;99.90
35277;DHT22;21401;50.878;8.050;2022-12-07T23:39:44;3.00;99.90
35277;DHT22;21401;50.878;8.050;2022-12-07T23:42:10;3.00;99.90
35277;DHT22;21401;50.878;8.050;2022-12-07T23:44:36;3.00;99.90
35277;DHT22;21401;50.878;8.050;2022-12-07T23:47:04;3.00;99.90
35277;DHT22;21401;50.878;8.050;2022-12-07T23:49:30;3.10;99.90
35277;DHT22;21401;50.878;8.050;2022-12-07T23:51:56;3.10;99.90
35277;DHT22;21401;50.878;8.050;2022-12-07T23:54:25;3.00;99.90
35277;DHT22;21401;50.878;8.050;2022-12-07T23:56:51;3.10;99.90
35277;DHT22;21401;50.878;8.050;2022-12-07T23:59:20;3.10;99.90
